sensor_id;sensor_type;location;lat;lon;timestamp;P1;durP1;ratioP1;P2;durP2;ratioP2
21148;SDS011;10732;51.472;6.466;2023-03-01T00:00:12;11.83;;;9.53;;
21148;SDS011;10732;51.472;6.466;2023-03-01T00:02:37;10.53;;;9.43;;
21148;SDS011;10732;51.472;6.466;2023-03-01T00:05:03;11.23;;;9.67;;
21148;SDS011;10732;51.472;6.466;2023-03-01T00:07:29;11.13;;;9.47;;
21148;SDS011;10732;51.472;6.466;2023-03-01T00:09:55;12.47;;;9.47;;
21148;SDS011;10732;51.472;6.466;2023-03-01T00:12:20;12.37;;;9.50;;
21148;SDS011;10732;51.472;6.466;2023-03-01T00:14:46;11.20;;;9.70;;
21148;SDS011;10732;51.472;6.466;2023-03-01T00:17:11;12.83;;;9.97;;
21148;SDS011;10732;51.472;6.466;2023-03-01T00:19:37;11.30;;;9.60;;
21148;SDS011;10732;51.472;6.466;2023-03-01T00:22:02;12.30;;;9.87;;
21148;SDS011;10732;51.472;6.466;2023-03-01T00:24:28;12.27;;;9.70;;
21148;SDS011;10732;51.472;6.466;2023-03-01T00:26:54;11.93;;;9.57;;
21148;SDS011;10732;51.472;6.466;2023-03-01T00:29:21;10.40;;;9.27;;
21148;SDS011;10732;51.472;6.466;2023-03-01T00:31:47;12.30;;;9.60;;
21148;SDS011;10732;51.472;6.466;2023-03-01T00:34:13;12.27;;;9.73;;
21148;SDS011;10732;51.472;6.466;2023-03-01T00:36:38;12.03;;;9.83;;
21148;SDS011;10732;51.472;6.466;2023-03-01T00:39:07;10.27;;;9.20;;
21148;SDS011;10732;51.472;6.466;2023-03-01T00:41:35;12.37;;;9.70;;
21148;SDS011;10732;51.472;6.466;2023-03-01T00:44:01;12.20;;;10.23;;
21148;SDS011;10732;51.472;6.466;2023-03-01T00:46:27;13.97;;;10.20;;
21148;SDS011;10732;51.472;6.466;2023-03-01T00:48:54;12.30;;;9.10;;
21148;SDS011;10732;51.472;6.466;2023-03-01T00:51:21;11.10;;;9.90;;
21148;SDS011;10732;51.472;6.466;2023-03-01T00:53:56;12.80;;;9.63;;
21148;SDS011;10732;51.472;6.466;2023-03-01T00:56:23;14.63;;;9.80;;
21148;SDS011;10732;51.472;6.466;2023-03-01T00:58:49;13.80;;;9.40;;
21148;SDS011;10732;51.472;6.466;2023-03-01T01:01:16;12.03;;;9.67;;
21148;SDS011;10732;51.472;6.466;2023-03-01T01:06:18;10.90;;;9.30;;
21148;SDS011;10732;51.472;6.466;2023-03-01T01:08:45;12.70;;;10.27;;
21148;SDS011;10732;51.472;6.466;2023-03-01T01:11:11;11.93;;;9.53;;
21148;SDS011;10732;51.472;6.466;2023-03-01T01:13:38;12.07;;;10.73;;
21148;SDS011;10732;51.472;6.466;2023-03-01T01:16:05;12.30;;;10.47;;
21148;SDS011;10732;51.472;6.466;2023-03-01T01:18:31;14.00;;;11.13;;
21148;SDS011;10732;51.472;6.466;2023-03-01T01:20:56;12.20;;;10.47;;
21148;SDS011;10732;51.472;6.466;2023-03-01T01:23:22;11.87;;;10.40;;
21148;SDS011;10732;51.472;6.466;2023-03-01T01:25:47;12.10;;;9.70;;
21148;SDS011;10732;51.472;6.466;2023-03-01T01:28:13;13.37;;;9.90;;
21148;SDS011;10732;51.472;6.466;2023-03-01T01:30:38;12.20;;;10.10;;
21148;SDS011;10732;51.472;6.466;2023-03-01T01:33:04;12.70;;;10.53;;
21148;SDS011;10732;51.472;6.466;2023-03-01T01:35:30;12.13;;;10.83;;
21148;SDS011;10732;51.472;6.466;2023-03-01T01:37:55;12.73;;;10.57;;
21148;SDS011;10732;51.472;6.466;2023-03-01T01:40:21;12.27;;;10.47;;
21148;SDS011;10732;51.472;6.466;2023-03-01T01:42:46;11.20;;;10.00;;
21148;SDS011;10732;51.472;6.466;2023-03-01T01:45:32;12.80;;;10.60;;
21148;SDS011;10732;51.472;6.466;2023-03-01T01:48:10;13.30;;;10.40;;
21148;SDS011;10732;51.472;6.466;2023-03-01T01:50:40;11.50;;;10.30;;
21148;SDS011;10732;51.472;6.466;2023-03-01T01:53:09;11.23;;;10.03;;
21148;SDS011;10732;51.472;6.466;2023-03-01T01:55:40;12.00;;;10.30;;
21148;SDS011;10732;51.472;6.466;2023-03-01T01:58:09;13.10;;;10.37;;
21148;SDS011;10732;51.472;6.466;2023-03-01T02:00:38;12.23;;;10.50;;
21148;SDS011;10732;51.472;6.466;2023-03-01T02:03:05;13.27;;;10.47;;
21148;SDS011;10732;51.472;6.466;2023-03-01T02:05:36;12.33;;;10.33;;
21148;SDS011;10732;51.472;6.466;2023-03-01T02:08:08;14.07;;;10.77;;
21148;SDS011;10732;51.472;6.466;2023-03-01T02:10:37;13.37;;;10.50;;
21148;SDS011;10732;51.472;6.466;2023-03-01T02:13:03;11.87;;;10.27;;
21148;SDS011;10732;51.472;6.466;2023-03-01T02:15:32;12.17;;;10.07;;
21148;SDS011;10732;51.472;6.466;2023-03-01T02:17:59;10.87;;;9.57;;
21148;SDS011;10732;51.472;6.466;2023-03-01T02:20:27;12.90;;;9.97;;
21148;SDS011;10732;51.472;6.466;2023-03-01T02:23:13;12.13;;;10.23;;
21148;SDS011;10732;51.472;6.466;2023-03-01T02:30:41;12.73;;;10.97;;
21148;SDS011;10732;51.472;6.466;2023-03-01T02:33:27;11.87;;;10.43;;
21148;SDS011;10732;51.472;6.466;2023-03-01T02:35:57;14.17;;;11.10;;
21148;SDS011;10732;51.472;6.466;2023-03-01T02:38:25;12.47;;;10.93;;
21148;SDS011;10732;51.472;6.466;2023-03-01T02:40:51;14.23;;;11.40;;
21148;SDS011;10732;51.472;6.466;2023-03-01T02:43:17;14.00;;;11.23;;
21148;SDS011;10732;51.472;6.466;2023-03-01T02:45:50;15.53;;;11.03;;
21148;SDS011;10732;51.472;6.466;2023-03-01T02:48:17;12.93;;;10.97;;
21148;SDS011;10732;51.472;6.466;2023-03-01T02:50:46;13.90;;;11.77;;
21148;SDS011;10732;51.472;6.466;2023-03-01T02:53:32;15.70;;;11.40;;
21148;SDS011;10732;51.472;6.466;2023-03-01T02:56:17;15.17;;;12.10;;
21148;SDS011;10732;51.472;6.466;2023-03-01T02:58:43;14.33;;;11.50;;
21148;SDS011;10732;51.472;6.466;2023-03-01T03:01:16;14.43;;;11.83;;
21148;SDS011;10732;51.472;6.466;2023-03-01T03:03:42;15.00;;;12.53;;
21148;SDS011;10732;51.472;6.466;2023-03-01T03:06:08;15.73;;;13.37;;
21148;SDS011;10732;51.472;6.466;2023-03-01T03:08:34;14.80;;;12.20;;
21148;SDS011;10732;51.472;6.466;2023-03-01T03:11:00;13.63;;;12.20;;
21148;SDS011;10732;51.472;6.466;2023-03-01T03:13:25;15.80;;;12.67;;
21148;SDS011;10732;51.472;6.466;2023-03-01T03:15:53;15.53;;;12.60;;
21148;SDS011;10732;51.472;6.466;2023-03-01T03:18:23;15.20;;;12.60;;
21148;SDS011;10732;51.472;6.466;2023-03-01T03:20:52;15.50;;;12.20;;
21148;SDS011;10732;51.472;6.466;2023-03-01T03:23:19;13.07;;;11.17;;
21148;SDS011;10732;51.472;6.466;2023-03-01T03:25:47;14.70;;;11.43;;
21148;SDS011;10732;51.472;6.466;2023-03-01T03:28:14;15.33;;;11.10;;
21148;SDS011;10732;51.472;6.466;2023-03-01T03:30:41;14.90;;;11.67;;
21148;SDS011;10732;51.472;6.466;2023-03-01T03:33:07;13.07;;;11.47;;
21148;SDS011;10732;51.472;6.466;2023-03-01T03:35:38;14.37;;;11.07;;
21148;SDS011;10732;51.472;6.466;2023-03-01T03:38:07;12.30;;;10.80;;
21148;SDS011;10732;51.472;6.466;2023-03-01T03:40:40;15.53;;;11.10;;
21148;SDS011;10732;51.472;6.466;2023-03-01T03:43:09;12.00;;;10.73;;
21148;SDS011;10732;51.472;6.466;2023-03-01T03:45:37;13.27;;;10.97;;
21148;SDS011;10732;51.472;6.466;2023-03-01T03:48:03;14.53;;;11.07;;
21148;SDS011;10732;51.472;6.466;2023-03-01T03:50:30;14.23;;;10.73;;
21148;SDS011;10732;51.472;6.466;2023-03-01T03:52:56;14.53;;;11.60;;
21148;SDS011;10732;51.472;6.466;2023-03-01T03:55:29;12.80;;;11.40;;
21148;SDS011;10732;51.472;6.466;2023-03-01T03:57:56;14.23;;;11.23;;
21148;SDS011;10732;51.472;6.466;2023-03-01T04:00:23;14.37;;;12.23;;
21148;SDS011;10732;51.472;6.466;2023-03-01T04:02:49;16.53;;;13.30;;
21148;SDS011;10732;51.472;6.466;2023-03-01T04:05:16;16.77;;;12.10;;
21148;SDS011;10732;51.472;6.466;2023-03-01T04:07:43;16.10;;;11.77;;
21148;SDS011;10732;51.472;6.466;2023-03-01T04:10:10;13.70;;;12.10;;
21148;SDS011;10732;51.472;6.466;2023-03-01T04:12:39;14.50;;;12.10;;
21148;SDS011;10732;51.472;6.466;2023-03-01T04:15:05;16.43;;;12.60;;
21148;SDS011;10732;51.472;6.466;2023-03-01T04:17:45;17.33;;;12.83;;
21148;SDS011;10732;51.472;6.466;2023-03-01T04:20:15;17.87;;;12.73;;
21148;SDS011;10732;51.472;6.466;2023-03-01T04:22:42;13.47;;;11.93;;
21148;SDS011;10732;51.472;6.466;2023-03-01T04:25:08;15.87;;;12.40;;
21148;SDS011;10732;51.472;6.466;2023-03-01T04:27:34;17.73;;;12.47;;
21148;SDS011;10732;51.472;6.466;2023-03-01T04:30:01;15.87;;;12.30;;
21148;SDS011;10732;51.472;6.466;2023-03-01T04:32:28;16.70;;;12.63;;
21148;SDS011;10732;51.472;6.466;2023-03-01T04:34:53;16.90;;;12.60;;
21148;SDS011;10732;51.472;6.466;2023-03-01T04:37:19;14.63;;;12.30;;
21148;SDS011;10732;51.472;6.466;2023-03-01T04:39:44;15.67;;;12.03;;
21148;SDS011;10732;51.472;6.466;2023-03-01T04:42:10;15.63;;;12.77;;
21148;SDS011;10732;51.472;6.466;2023-03-01T04:44:36;15.93;;;12.90;;
21148;SDS011;10732;51.472;6.466;2023-03-01T04:47:02;16.20;;;12.53;;
21148;SDS011;10732;51.472;6.466;2023-03-01T04:49:27;15.33;;;13.33;;
21148;SDS011;10732;51.472;6.466;2023-03-01T04:51:53;15.27;;;12.47;;
21148;SDS011;10732;51.472;6.466;2023-03-01T04:54:18;14.33;;;12.33;;
21148;SDS011;10732;51.472;6.466;2023-03-01T04:56:44;15.43;;;12.37;;
21148;SDS011;10732;51.472;6.466;2023-03-01T04:59:09;18.13;;;12.90;;
21148;SDS011;10732;51.472;6.466;2023-03-01T05:01:37;17.13;;;12.93;;
21148;SDS011;10732;51.472;6.466;2023-03-01T05:04:03;14.60;;;12.83;;
21148;SDS011;10732;51.472;6.466;2023-03-01T05:06:30;16.57;;;12.27;;
21148;SDS011;10732;51.472;6.466;2023-03-01T05:08:57;15.80;;;13.23;;
21148;SDS011;10732;51.472;6.466;2023-03-01T05:11:23;15.57;;;13.17;;
21148;SDS011;10732;51.472;6.466;2023-03-01T05:13:48;16.30;;;13.03;;
21148;SDS011;10732;51.472;6.466;2023-03-01T05:16:19;16.60;;;12.90;;
21148;SDS011;10732;51.472;6.466;2023-03-01T05:18:45;19.67;;;13.47;;
21148;SDS011;10732;51.472;6.466;2023-03-01T05:21:11;16.40;;;12.90;;
21148;SDS011;10732;51.472;6.466;2023-03-01T05:23:40;17.33;;;13.00;;
21148;SDS011;10732;51.472;6.466;2023-03-01T05:26:06;16.20;;;13.17;;
21148;SDS011;10732;51.472;6.466;2023-03-01T05:28:32;16.00;;;12.17;;
21148;SDS011;10732;51.472;6.466;2023-03-01T05:30:58;15.97;;;12.73;;
21148;SDS011;10732;51.472;6.466;2023-03-01T05:33:24;16.00;;;12.23;;
21148;SDS011;10732;51.472;6.466;2023-03-01T05:35:50;15.43;;;13.53;;
21148;SDS011;10732;51.472;6.466;2023-03-01T05:38:17;15.23;;;12.70;;
21148;SDS011;10732;51.472;6.466;2023-03-01T05:40:44;15.27;;;12.70;;
21148;SDS011;10732;51.472;6.466;2023-03-01T05:43:12;16.93;;;13.17;;
21148;SDS011;10732;51.472;6.466;2023-03-01T05:45:39;15.93;;;13.23;;
21148;SDS011;10732;51.472;6.466;2023-03-01T05:48:05;16.27;;;13.13;;
21148;SDS011;10732;51.472;6.466;2023-03-01T05:50:34;17.67;;;14.03;;
21148;SDS011;10732;51.472;6.466;2023-03-01T05:53:05;15.27;;;12.73;;
21148;SDS011;10732;51.472;6.466;2023-03-01T05:55:35;14.07;;;12.57;;
21148;SDS011;10732;51.472;6.466;2023-03-01T05:58:02;15.00;;;12.87;;
21148;SDS011;10732;51.472;6.466;2023-03-01T06:00:29;14.20;;;12.30;;
21148;SDS011;10732;51.472;6.466;2023-03-01T06:02:55;15.37;;;12.70;;
21148;SDS011;10732;51.472;6.466;2023-03-01T06:05:22;14.80;;;12.60;;
21148;SDS011;10732;51.472;6.466;2023-03-01T06:07:48;14.53;;;13.03;;
21148;SDS011;10732;51.472;6.466;2023-03-01T06:10:15;16.07;;;13.83;;
21148;SDS011;10732;51.472;6.466;2023-03-01T06:12:42;17.83;;;13.90;;
21148;SDS011;10732;51.472;6.466;2023-03-01T06:15:09;25.30;;;18.03;;
21148;SDS011;10732;51.472;6.466;2023-03-01T06:17:37;28.77;;;24.50;;
21148;SDS011;10732;51.472;6.466;2023-03-01T06:20:06;26.03;;;21.23;;
21148;SDS011;10732;51.472;6.466;2023-03-01T06:22:36;37.87;;;30.97;;
21148;SDS011;10732;51.472;6.466;2023-03-01T06:25:02;24.03;;;18.53;;
21148;SDS011;10732;51.472;6.466;2023-03-01T06:27:28;19.93;;;17.03;;
21148;SDS011;10732;51.472;6.466;2023-03-01T06:29:54;19.83;;;16.70;;
21148;SDS011;10732;51.472;6.466;2023-03-01T06:32:19;16.97;;;14.53;;
21148;SDS011;10732;51.472;6.466;2023-03-01T06:34:45;18.07;;;14.83;;
21148;SDS011;10732;51.472;6.466;2023-03-01T06:37:10;20.40;;;14.93;;
21148;SDS011;10732;51.472;6.466;2023-03-01T06:39:36;19.10;;;15.10;;
21148;SDS011;10732;51.472;6.466;2023-03-01T06:42:02;19.27;;;15.37;;
21148;SDS011;10732;51.472;6.466;2023-03-01T06:44:28;20.60;;;15.77;;
21148;SDS011;10732;51.472;6.466;2023-03-01T06:46:53;16.33;;;14.33;;
21148;SDS011;10732;51.472;6.466;2023-03-01T06:49:19;18.20;;;14.80;;
21148;SDS011;10732;51.472;6.466;2023-03-01T06:51:45;17.00;;;14.07;;
21148;SDS011;10732;51.472;6.466;2023-03-01T06:54:11;17.97;;;14.27;;
21148;SDS011;10732;51.472;6.466;2023-03-01T06:56:37;19.83;;;14.70;;
21148;SDS011;10732;51.472;6.466;2023-03-01T06:59:03;20.70;;;14.97;;
21148;SDS011;10732;51.472;6.466;2023-03-01T07:01:29;20.77;;;14.97;;
21148;SDS011;10732;51.472;6.466;2023-03-01T07:03:55;20.50;;;14.67;;
21148;SDS011;10732;51.472;6.466;2023-03-01T07:06:21;17.63;;;14.73;;
21148;SDS011;10732;51.472;6.466;2023-03-01T07:08:47;16.80;;;13.33;;
21148;SDS011;10732;51.472;6.466;2023-03-01T07:11:13;16.63;;;13.73;;
21148;SDS011;10732;51.472;6.466;2023-03-01T07:13:39;15.67;;;12.60;;
21148;SDS011;10732;51.472;6.466;2023-03-01T07:16:04;14.63;;;12.83;;
21148;SDS011;10732;51.472;6.466;2023-03-01T07:18:30;16.20;;;13.40;;
21148;SDS011;10732;51.472;6.466;2023-03-01T07:20:56;15.97;;;12.40;;
21148;SDS011;10732;51.472;6.466;2023-03-01T07:23:21;20.50;;;12.50;;
21148;SDS011;10732;51.472;6.466;2023-03-01T07:25:51;15.77;;;12.67;;
21148;SDS011;10732;51.472;6.466;2023-03-01T07:28:18;18.00;;;12.80;;
21148;SDS011;10732;51.472;6.466;2023-03-01T07:30:43;16.90;;;12.23;;
21148;SDS011;10732;51.472;6.466;2023-03-01T07:33:09;14.10;;;12.07;;
21148;SDS011;10732;51.472;6.466;2023-03-01T07:35:35;16.47;;;12.73;;
21148;SDS011;10732;51.472;6.466;2023-03-01T07:38:00;13.50;;;11.93;;
21148;SDS011;10732;51.472;6.466;2023-03-01T07:40:26;13.40;;;11.03;;
21148;SDS011;10732;51.472;6.466;2023-03-01T07:43:00;16.37;;;12.03;;
21148;SDS011;10732;51.472;6.466;2023-03-01T07:45:26;15.57;;;12.27;;
21148;SDS011;10732;51.472;6.466;2023-03-01T07:47:53;14.00;;;11.50;;
21148;SDS011;10732;51.472;6.466;2023-03-01T07:50:19;19.73;;;15.20;;
21148;SDS011;10732;51.472;6.466;2023-03-01T07:52:46;12.87;;;11.40;;
21148;SDS011;10732;51.472;6.466;2023-03-01T07:55:12;13.00;;;11.07;;
21148;SDS011;10732;51.472;6.466;2023-03-01T07:57:38;14.47;;;11.07;;
21148;SDS011;10732;51.472;6.466;2023-03-01T08:00:04;16.70;;;10.67;;
21148;SDS011;10732;51.472;6.466;2023-03-01T08:02:30;13.13;;;11.07;;
21148;SDS011;10732;51.472;6.466;2023-03-01T08:04:56;16.57;;;10.50;;
21148;SDS011;10732;51.472;6.466;2023-03-01T08:07:22;16.07;;;10.33;;
21148;SDS011;10732;51.472;6.466;2023-03-01T08:09:47;12.93;;;10.37;;
21148;SDS011;10732;51.472;6.466;2023-03-01T08:12:13;16.13;;;10.98;;
21148;SDS011;10732;51.472;6.466;2023-03-01T08:14:38;13.90;;;9.27;;
21148;SDS011;10732;51.472;6.466;2023-03-01T08:17:04;13.18;;;7.50;;
21148;SDS011;10732;51.472;6.466;2023-03-01T08:19:29;10.05;;;7.60;;
21148;SDS011;10732;51.472;6.466;2023-03-01T08:21:55;10.07;;;7.60;;
21148;SDS011;10732;51.472;6.466;2023-03-01T08:24:23;10.98;;;7.63;;
21148;SDS011;10732;51.472;6.466;2023-03-01T08:26:49;13.35;;;7.78;;
21148;SDS011;10732;51.472;6.466;2023-03-01T08:29:14;9.80;;;7.47;;
21148;SDS011;10732;51.472;6.466;2023-03-01T08:31:40;10.73;;;7.68;;
21148;SDS011;10732;51.472;6.466;2023-03-01T08:34:07;13.52;;;9.30;;
21148;SDS011;10732;51.472;6.466;2023-03-01T08:36:35;11.45;;;8.00;;
21148;SDS011;10732;51.472;6.466;2023-03-01T08:39:03;10.75;;;9.18;;
21148;SDS011;10732;51.472;6.466;2023-03-01T08:41:29;12.50;;;9.68;;
21148;SDS011;10732;51.472;6.466;2023-03-01T08:43:55;10.32;;;6.72;;
21148;SDS011;10732;51.472;6.466;2023-03-01T08:46:34;9.05;;;6.75;;
21148;SDS011;10732;51.472;6.466;2023-03-01T08:49:03;9.88;;;7.63;;
21148;SDS011;10732;51.472;6.466;2023-03-01T08:51:33;9.77;;;6.93;;
21148;SDS011;10732;51.472;6.466;2023-03-01T08:54:05;9.77;;;8.05;;
21148;SDS011;10732;51.472;6.466;2023-03-01T08:56:34;9.65;;;7.78;;
21148;SDS011;10732;51.472;6.466;2023-03-01T08:59:00;11.43;;;8.50;;
21148;SDS011;10732;51.472;6.466;2023-03-01T09:01:26;11.50;;;7.40;;
21148;SDS011;10732;51.472;6.466;2023-03-01T09:03:51;12.38;;;7.65;;
21148;SDS011;10732;51.472;6.466;2023-03-01T09:06:17;9.02;;;7.63;;
21148;SDS011;10732;51.472;6.466;2023-03-01T09:08:44;9.02;;;7.00;;
21148;SDS011;10732;51.472;6.466;2023-03-01T09:11:11;10.20;;;7.50;;
21148;SDS011;10732;51.472;6.466;2023-03-01T09:13:38;9.52;;;7.40;;
21148;SDS011;10732;51.472;6.466;2023-03-01T09:16:05;9.18;;;7.28;;
21148;SDS011;10732;51.472;6.466;2023-03-01T09:18:32;9.35;;;6.65;;
21148;SDS011;10732;51.472;6.466;2023-03-01T09:21:05;10.63;;;6.82;;
21148;SDS011;10732;51.472;6.466;2023-03-01T09:23:33;11.95;;;7.15;;
21148;SDS011;10732;51.472;6.466;2023-03-01T09:25:59;11.52;;;7.53;;
21148;SDS011;10732;51.472;6.466;2023-03-01T09:28:25;8.43;;;7.40;;
21148;SDS011;10732;51.472;6.466;2023-03-01T09:30:50;9.88;;;7.28;;
21148;SDS011;10732;51.472;6.466;2023-03-01T09:33:16;9.82;;;7.38;;
21148;SDS011;10732;51.472;6.466;2023-03-01T09:35:41;10.05;;;8.15;;
21148;SDS011;10732;51.472;6.466;2023-03-01T09:38:12;12.13;;;8.70;;
21148;SDS011;10732;51.472;6.466;2023-03-01T09:40:41;9.88;;;7.93;;
21148;SDS011;10732;51.472;6.466;2023-03-01T09:46:03;14.63;;;11.55;;
21148;SDS011;10732;51.472;6.466;2023-03-01T09:48:33;11.00;;;7.60;;
21148;SDS011;10732;51.472;6.466;2023-03-01T09:51:07;9.52;;;7.78;;
21148;SDS011;10732;51.472;6.466;2023-03-01T09:53:40;11.60;;;8.13;;
21148;SDS011;10732;51.472;6.466;2023-03-01T09:56:11;15.30;;;7.85;;
21148;SDS011;10732;51.472;6.466;2023-03-01T09:58:54;11.40;;;7.30;;
21148;SDS011;10732;51.472;6.466;2023-03-01T10:01:32;9.75;;;7.45;;
21148;SDS011;10732;51.472;6.466;2023-03-01T10:06:44;10.48;;;8.00;;
21148;SDS011;10732;51.472;6.466;2023-03-01T10:09:20;12.07;;;7.72;;
21148;SDS011;10732;51.472;6.466;2023-03-01T10:11:50;8.50;;;7.18;;
21148;SDS011;10732;51.472;6.466;2023-03-01T10:17:04;11.32;;;8.40;;
21148;SDS011;10732;51.472;6.466;2023-03-01T10:19:42;10.38;;;7.60;;
21148;SDS011;10732;51.472;6.466;2023-03-01T10:22:16;11.13;;;8.52;;
21148;SDS011;10732;51.472;6.466;2023-03-01T10:24:48;8.43;;;7.28;;
21148;SDS011;10732;51.472;6.466;2023-03-01T10:27:23;11.07;;;7.53;;
21148;SDS011;10732;51.472;6.466;2023-03-01T10:29:55;11.13;;;7.28;;
21148;SDS011;10732;51.472;6.466;2023-03-01T10:32:23;13.07;;;9.18;;
21148;SDS011;10732;51.472;6.466;2023-03-01T10:34:49;11.38;;;8.15;;
21148;SDS011;10732;51.472;6.466;2023-03-01T10:37:15;15.52;;;9.63;;
21148;SDS011;10732;51.472;6.466;2023-03-01T10:39:57;10.82;;;7.85;;
21148;SDS011;10732;51.472;6.466;2023-03-01T10:42:33;12.25;;;7.70;;
21148;SDS011;10732;51.472;6.466;2023-03-01T10:48:11;9.02;;;7.65;;
21148;SDS011;10732;51.472;6.466;2023-03-01T10:50:42;9.50;;;7.20;;
21148;SDS011;10732;51.472;6.466;2023-03-01T10:53:22;11.30;;;7.75;;
21148;SDS011;10732;51.472;6.466;2023-03-01T10:55:56;12.65;;;8.18;;
21148;SDS011;10732;51.472;6.466;2023-03-01T10:58:27;10.25;;;8.02;;
21148;SDS011;10732;51.472;6.466;2023-03-01T11:00:58;11.18;;;8.48;;
21148;SDS011;10732;51.472;6.466;2023-03-01T11:03:33;11.88;;;7.68;;
21148;SDS011;10732;51.472;6.466;2023-03-01T11:06:02;14.88;;;9.82;;
21148;SDS011;10732;51.472;6.466;2023-03-01T11:08:41;10.27;;;7.25;;
21148;SDS011;10732;51.472;6.466;2023-03-01T11:13:58;8.93;;;6.85;;
21148;SDS011;10732;51.472;6.466;2023-03-01T11:16:40;9.23;;;6.60;;
21148;SDS011;10732;51.472;6.466;2023-03-01T11:21:34;10.68;;;8.30;;
21148;SDS011;10732;51.472;6.466;2023-03-01T11:24:21;10.77;;;7.75;;
21148;SDS011;10732;51.472;6.466;2023-03-01T11:27:44;11.13;;;7.47;;
21148;SDS011;10732;51.472;6.466;2023-03-01T11:35:47;8.60;;;6.60;;
21148;SDS011;10732;51.472;6.466;2023-03-01T11:38:24;10.25;;;6.72;;
21148;SDS011;10732;51.472;6.466;2023-03-01T11:40:52;8.68;;;6.22;;
21148;SDS011;10732;51.472;6.466;2023-03-01T11:43:33;10.07;;;6.93;;
21148;SDS011;10732;51.472;6.466;2023-03-01T11:55:05;9.88;;;6.50;;
21148;SDS011;10732;51.472;6.466;2023-03-01T12:00:13;9.43;;;6.03;;
21148;SDS011;10732;51.472;6.466;2023-03-01T12:03:04;9.13;;;6.13;;
21148;SDS011;10732;51.472;6.466;2023-03-01T12:08:41;8.85;;;6.57;;
21148;SDS011;10732;51.472;6.466;2023-03-01T12:22:51;8.90;;;6.80;;
21148;SDS011;10732;51.472;6.466;2023-03-01T12:34:26;8.68;;;6.32;;
21148;SDS011;10732;51.472;6.466;2023-03-01T12:37:12;8.15;;;6.57;;
21148;SDS011;10732;51.472;6.466;2023-03-01T12:40:11;9.57;;;6.05;;
21148;SDS011;10732;51.472;6.466;2023-03-01T12:51:11;8.88;;;6.43;;
21148;SDS011;10732;51.472;6.466;2023-03-01T12:53:45;7.35;;;5.78;;
21148;SDS011;10732;51.472;6.466;2023-03-01T12:56:14;10.38;;;5.95;;
21148;SDS011;10732;51.472;6.466;2023-03-01T13:02:01;8.93;;;6.40;;
21148;SDS011;10732;51.472;6.466;2023-03-01T13:07:41;9.38;;;6.22;;
21148;SDS011;10732;51.472;6.466;2023-03-01T13:10:28;8.88;;;6.03;;
21148;SDS011;10732;51.472;6.466;2023-03-01T13:13:03;10.35;;;6.03;;
21148;SDS011;10732;51.472;6.466;2023-03-01T13:15:39;10.75;;;5.80;;
21148;SDS011;10732;51.472;6.466;2023-03-01T13:36:48;9.55;;;6.60;;
21148;SDS011;10732;51.472;6.466;2023-03-01T13:39:28;7.70;;;5.78;;
21148;SDS011;10732;51.472;6.466;2023-03-01T13:41:57;10.32;;;6.60;;
21148;SDS011;10732;51.472;6.466;2023-03-01T13:44:35;8.93;;;6.25;;
21148;SDS011;10732;51.472;6.466;2023-03-01T13:47:07;8.30;;;6.40;;
21148;SDS011;10732;51.472;6.466;2023-03-01T13:49:49;9.57;;;6.00;;
21148;SDS011;10732;51.472;6.466;2023-03-01T13:52:29;8.20;;;6.10;;
21148;SDS011;10732;51.472;6.466;2023-03-01T13:55:06;10.00;;;6.53;;
21148;SDS011;10732;51.472;6.466;2023-03-01T13:57:42;9.00;;;6.25;;
21148;SDS011;10732;51.472;6.466;2023-03-01T14:03:29;9.98;;;6.50;;
21148;SDS011;10732;51.472;6.466;2023-03-01T14:05:58;8.25;;;6.32;;
21148;SDS011;10732;51.472;6.466;2023-03-01T14:08:31;10.55;;;7.13;;
21148;SDS011;10732;51.472;6.466;2023-03-01T14:13:54;9.05;;;6.63;;
21148;SDS011;10732;51.472;6.466;2023-03-01T14:19:19;9.45;;;6.95;;
21148;SDS011;10732;51.472;6.466;2023-03-01T14:24:28;9.35;;;6.82;;
21148;SDS011;10732;51.472;6.466;2023-03-01T14:26:57;8.65;;;6.72;;
21148;SDS011;10732;51.472;6.466;2023-03-01T14:29:27;12.38;;;7.30;;
21148;SDS011;10732;51.472;6.466;2023-03-01T14:32:24;11.05;;;7.25;;
21148;SDS011;10732;51.472;6.466;2023-03-01T14:34:51;10.43;;;6.90;;
21148;SDS011;10732;51.472;6.466;2023-03-01T14:37:27;9.93;;;6.95;;
21148;SDS011;10732;51.472;6.466;2023-03-01T14:40:00;9.75;;;7.40;;
21148;SDS011;10732;51.472;6.466;2023-03-01T14:42:28;10.52;;;7.75;;
21148;SDS011;10732;51.472;6.466;2023-03-01T14:44:59;10.40;;;7.43;;
21148;SDS011;10732;51.472;6.466;2023-03-01T14:47:31;11.60;;;7.13;;
21148;SDS011;10732;51.472;6.466;2023-03-01T14:50:32;13.95;;;7.88;;
21148;SDS011;10732;51.472;6.466;2023-03-01T14:52:57;9.57;;;7.07;;
21148;SDS011;10732;51.472;6.466;2023-03-01T14:55:27;11.18;;;7.53;;
21148;SDS011;10732;51.472;6.466;2023-03-01T14:57:56;9.52;;;7.32;;
21148;SDS011;10732;51.472;6.466;2023-03-01T15:00:24;12.50;;;7.47;;
21148;SDS011;10732;51.472;6.466;2023-03-01T15:02:53;12.07;;;7.53;;
21148;SDS011;10732;51.472;6.466;2023-03-01T15:05:38;10.90;;;7.30;;
21148;SDS011;10732;51.472;6.466;2023-03-01T15:08:05;11.30;;;7.78;;
21148;SDS011;10732;51.472;6.466;2023-03-01T15:10:34;14.73;;;7.85;;
21148;SDS011;10732;51.472;6.466;2023-03-01T15:13:14;12.48;;;8.30;;
21148;SDS011;10732;51.472;6.466;2023-03-01T15:15:47;14.00;;;7.88;;
21148;SDS011;10732;51.472;6.466;2023-03-01T15:18:19;9.80;;;8.02;;
21148;SDS011;10732;51.472;6.466;2023-03-01T15:20:47;9.65;;;7.65;;
21148;SDS011;10732;51.472;6.466;2023-03-01T15:23:29;10.10;;;7.65;;
21148;SDS011;10732;51.472;6.466;2023-03-01T15:25:55;10.90;;;7.30;;
21148;SDS011;10732;51.472;6.466;2023-03-01T15:30:56;11.70;;;7.85;;
21148;SDS011;10732;51.472;6.466;2023-03-01T15:33:28;12.18;;;8.38;;
21148;SDS011;10732;51.472;6.466;2023-03-01T15:35:56;11.27;;;7.85;;
21148;SDS011;10732;51.472;6.466;2023-03-01T15:38:31;13.05;;;8.20;;
21148;SDS011;10732;51.472;6.466;2023-03-01T15:41:22;14.20;;;8.40;;
21148;SDS011;10732;51.472;6.466;2023-03-01T15:43:58;10.95;;;7.68;;
21148;SDS011;10732;51.472;6.466;2023-03-01T15:46:32;12.00;;;8.38;;
21148;SDS011;10732;51.472;6.466;2023-03-01T15:49:01;15.52;;;8.75;;
21148;SDS011;10732;51.472;6.466;2023-03-01T15:51:31;14.07;;;8.93;;
21148;SDS011;10732;51.472;6.466;2023-03-01T15:54:02;12.02;;;8.15;;
21148;SDS011;10732;51.472;6.466;2023-03-01T15:56:36;10.50;;;7.57;;
21148;SDS011;10732;51.472;6.466;2023-03-01T15:59:02;10.95;;;7.68;;
21148;SDS011;10732;51.472;6.466;2023-03-01T16:01:28;11.20;;;7.40;;
21148;SDS011;10732;51.472;6.466;2023-03-01T16:03:54;10.20;;;7.63;;
21148;SDS011;10732;51.472;6.466;2023-03-01T16:06:21;11.00;;;7.38;;
21148;SDS011;10732;51.472;6.466;2023-03-01T16:08:46;11.48;;;7.82;;
21148;SDS011;10732;51.472;6.466;2023-03-01T16:11:14;11.63;;;7.50;;
21148;SDS011;10732;51.472;6.466;2023-03-01T16:13:41;15.35;;;7.88;;
21148;SDS011;10732;51.472;6.466;2023-03-01T16:16:09;13.43;;;8.15;;
21148;SDS011;10732;51.472;6.466;2023-03-01T16:18:37;11.27;;;7.72;;
21148;SDS011;10732;51.472;6.466;2023-03-01T16:21:03;10.95;;;7.65;;
21148;SDS011;10732;51.472;6.466;2023-03-01T16:23:30;12.55;;;8.10;;
21148;SDS011;10732;51.472;6.466;2023-03-01T16:25:58;12.07;;;7.57;;
21148;SDS011;10732;51.472;6.466;2023-03-01T16:28:25;8.20;;;6.60;;
21148;SDS011;10732;51.472;6.466;2023-03-01T16:30:51;12.38;;;7.75;;
21148;SDS011;10732;51.472;6.466;2023-03-01T16:33:17;14.82;;;7.22;;
21148;SDS011;10732;51.472;6.466;2023-03-01T16:35:42;16.33;;;8.35;;